x

Monterey - 27nm Wnw Of Monterey, Ca (46042) Wave Buoy

5:50pm - Sun 28th Aug 2016 All times are PDT. -7 hours from GMT.

  • Sig Wave height 3.6ft
  • Swell Direction
  • Peak Period 13s
  • Average Period 6s
  • Wind
    16mph, 20mph gusts
  • Sea Temp 61°f
  • Air Temp 61°f
  • Sea Pressure 1017.8mb
  • Monterey - 27nm Wnw Of Monterey, Ca
  • Monterey - 27nm Wnw Of Monterey, Ca

More Historic Weather Station data

Upgrade to MSW Pro to gain access to the past 30 days of data for over 8000 Wavebouys and Weather Stations around the globe.

Join Pro

Comparision Forecast

View Surf forecast
   
Sun 08/28 5:50pm 3.5ft 13s 6s 16 20 mph 1017.8mb 61f 61f
4:50pm 4ft 13s 7s 16 20 mph 1018mb 61f 61f
3:50pm 3.5ft 9s 8s 13 16 mph 1018.5mb 62f 62f
2:50pm 3.5ft 9s 8s 9 11 mph 1019.1mb 62f 62f
1:50pm 3.5ft 13s 8s 9
mph
1019.3mb 61f 61f
12:50pm 3.5ft 13s 8s 7 9 mph 1019.4mb 61f 61f
11:50am 3.5ft 14s 8s 7 9 mph 1019.5mb 61f 61f
10:50am 4ft 13s 9s 7 11 mph 1019.3mb 61f 61f
9:50am 4ft 14s 8s 7 9 mph 1019mb 61f 61f
8:50am 3.5ft 14s 9s 9 11 mph 1018.7mb 61f 61f
7:50am 3.5ft 9s 8s 7 9 mph 1018.3mb 61f 61f
6:50am 3.5ft 13s 8s 7 9 mph 1018mb 60f 61f
5:50am 4ft 14s 8s 7
mph
1017.8mb 60f 61f
4:50am 4ft 14s 8s 4 7 mph 1017.7mb 60f 61f
3:50am 4ft 14s 8s 7 9 mph 1017.6mb 60f 62f
2:50am 4ft 14s 8s 7 9 mph 1017.6mb 60f 62f
1:50am 3.5ft 13s 8s 4 9 mph 1017.4mb 60f 62f
12:50am 4ft 14s 8s 4 9 mph 1017.5mb 60f 62f
Sat 08/27 11:50pm 4ft 14s 8s 4 7 mph 1017.4mb 60f 62f
10:50pm 4ft 14s 8s 4 7 mph 1017.2mb 60f 62f
9:50pm 4.5ft 15s 8s 4 9 mph 1016.8mb 61f 62f
8:50pm 4.5ft 14s 8s 9 11 mph 1016.4mb 61f 62f
7:50pm 4.5ft 10s 8s 7 9 mph 1015.9mb 61f 62f
6:50pm 4.5ft 14s 8s 4 7 mph 1015.8mb 61f 62f
5:50pm 4.5ft 14s 8s 2 4 mph 1016.1mb 62f 62f
4:50pm 4.5ft 14s 8s 2 4 mph 1016mb 62f 62f
3:50pm 5ft 10s 8s  -  2 mph 1016.4mb 62f 63f
2:50pm 5ft 15s 8s 2
mph
1016.6mb 61f 62f
1:50pm 5ft 11s 8s 2 4 mph 1017mb 60f 61f
12:50pm 5ft 10s 8s 2 4 mph 1017.1mb 60f 62f
11:50am 5ft 11s 8s 2
mph
1017.2mb 60f 61f
10:50am 4.5ft 10s 9s 2 4 mph 1017.1mb 60f 61f
9:50am 4.5ft 10s 8s 2 4 mph 1016.5mb 60f 61f
8:50am 5ft 10s 9s 2
mph
1016.1mb 60f 61f
7:50am 5ft 14s 8s 2 4 mph 1015.8mb 60f 61f
6:50am 5ft 9s 8s  -  2 mph 1015.2mb 60f 61f
5:50am 5ft 9s 8s 2 7 mph 1014.9mb 60f 62f
4:50am 5ft 15s 9s  -  2 mph 1014.8mb 60f 62f
3:50am 4.5ft 15s 8s 2 7 mph 1014.9mb 60f 62f
2:50am 4.5ft 14s 8s 4 7 mph 1015.1mb 60f 62f
1:50am 4.5ft 14s 8s 2 4 mph 1015.1mb 60f 62f
12:50am 4.5ft 14s 8s 2 4 mph 1015.4mb 60f 62f
Fri 08/26 11:50pm 4.5ft 14s 8s 4
mph
1015.5mb 60f 62f
10:50pm 4.5ft 14s 8s 4 7 mph 1015.5mb 60f 62f
9:50pm 4.5ft 14s 8s 4 7 mph 1015.2mb 60f 61f
8:50pm 4.5ft 14s 7s 7
mph
1015mb 60f 60f
7:50pm 4.5ft 15s 8s 9 11 mph 1014.6mb 60f 60f
6:50pm 4.5ft 14s 7s 9 11 mph 1014.3mb 60f 60f
5:50pm 4.5ft 14s 7s 9 11 mph 1014.5mb 60f 60f
4:50pm 4.5ft 8s 7s 9 11 mph 1014.7mb 60f 60f
3:50pm 4.5ft 15s 7s 11
mph
1015mb 60f 59f
2:50pm 4.5ft 15s 7s 11 13 mph 1015.2mb 60f 59f
1:50pm 4.5ft 15s 7s 13 16 mph 1015.1mb 60f 59f
12:50pm 4.5ft 15s 7s 13 16 mph 1015.2mb 60f 59f
11:50am 4.5ft 14s 8s 11 13 mph 1015.1mb 60f 59f
10:50am 4ft 14s 7s 11
mph
1015mb 60f 59f
9:50am 4ft 14s 7s 7 9 mph 1014.6mb 60f 59f
8:50am 3.5ft 15s 8s 7 9 mph 1014.2mb 60f 59f
7:50am 3.5ft 16s 7s 7 9 mph 1013.7mb 60f 59f
6:50am 3.5ft 15s 7s 7 9 mph 1013.1mb 60f 59f
5:50am 4ft 14s 7s 4 7 mph 1012.8mb 60f 59f
4:50am 4ft 15s 7s 4
mph
1012.8mb 60f 59f
3:50am 3.5ft 14s 7s 4 7 mph 1012.6mb 60f 60f
2:50am 3.5ft 15s 6s 4 7 mph 1012.6mb 60f 59f
1:50am 4.5ft 15s 7s 4 7 mph 1012.7mb 60f 59f
12:50am 3.5ft 15s 6s 2 4 mph 1012.9mb 60f 59f
Thu 08/25 11:50pm 3.5ft 15s 6s 2
mph
1013.2mb 60f 59f
10:50pm 4ft 15s 7s 4
mph
1013.4mb 60f 60f
9:50pm 4ft 16s 7s 7
mph
1013.5mb 60f 60f
8:50pm 4ft 15s 7s 7 11 mph 1013.1mb 60f 60f
7:50pm 3.5ft 17s 6s 4 7 mph 1013mb 60f 60f
6:50pm 4ft 7s 6s 7 9 mph 1012.7mb 60f 60f
5:50pm 3.5ft 16s 6s 2
mph
1013mb 60f 59f
4:50pm 4ft 7s 6s 2
mph
1013.2mb 60f 59f
3:50pm 4ft 16s 6s 2 4 mph 1013.5mb 60f 58f
2:50pm 4ft 7s 6s 4 7 mph 1014.1mb 60f 58f
1:50pm 4ft 7s 6s 4
mph
1014.5mb 60f 58f
12:50pm 4ft 6s 6s 7 9 mph 1015mb 60f 58f
11:50am 4.5ft 7s 6s 9 11 mph 1015.4mb 60f 58f
10:50am 4ft 7s 6s 7 11 mph 1015.6mb 59f 57f
9:50am 4ft 8s 6s 9
mph
1015.6mb 59f 57f
8:50am 4ft 7s 6s 11 16 mph 1015.3mb 59f 56f
7:50am 4ft 7s 6s 9 11 mph 1015.4mb 60f 56f
6:50am 4ft 8s 6s 9 13 mph 1015mb 60f 56f
5:50am 3.5ft 8s 6s 11 16 mph 1014.6mb 60f 56f
4:50am 3.5ft 6s 5s 11 13 mph 1014.5mb 60f 56f
3:50am 3.5ft 6s 5s 11 16 mph 1014.6mb 60f 56f
2:50am 3.5ft 7s 5s 11 16 mph 1014.7mb 60f 57f
1:50am 3.5ft 6s 5s 11 16 mph 1015.2mb 60f 57f